createdAt,value
2022-10-21T00:04:33.220Z,5.30
2022-10-21T00:09:35.982Z,5.20
2022-10-21T00:14:38.583Z,5.20
2022-10-21T00:19:42.847Z,5.20
2022-10-21T00:24:45.407Z,5.20
2022-10-21T00:29:48.147Z,5.20
2022-10-21T00:34:50.844Z,5.20
2022-10-21T00:39:53.765Z,5.20
2022-10-21T00:45:17.999Z,5.10
2022-10-21T00:50:51.559Z,5.00
2022-10-21T00:55:58.244Z,5.00
2022-10-21T01:01:03.748Z,4.80
2022-10-21T01:06:09.898Z,4.80
2022-10-21T01:11:15.888Z,4.70
2022-10-21T01:16:48.431Z,4.80
2022-10-21T01:22:09.909Z,4.70
2022-10-21T01:27:56.636Z,4.70
2022-10-21T01:33:05.423Z,4.70
2022-10-21T01:38:14.321Z,4.60
2022-10-21T01:43:19.074Z,4.60
2022-10-21T01:48:28.793Z,4.50
2022-10-21T01:53:48.811Z,4.50
2022-10-21T01:58:53.130Z,4.50
2022-10-21T02:03:59.190Z,4.50
2022-10-21T02:09:02.100Z,4.50
2022-10-21T02:14:29.479Z,4.50
2022-10-21T02:24:53.719Z,4.60
2022-10-21T02:29:58.807Z,4.50
2022-10-21T02:35:13.697Z,4.50
2022-10-21T02:40:45.285Z,4.50
2022-10-21T02:45:48.917Z,4.40
2022-10-21T02:50:52.268Z,4.40
2022-10-21T02:55:55.180Z,4.30
2022-10-21T03:00:58.169Z,4.30
2022-10-21T03:06:01.034Z,4.30
2022-10-21T03:11:04.349Z,4.30
2022-10-21T03:16:07.690Z,4.30
2022-10-21T03:21:10.355Z,4.30
2022-10-21T03:26:13.009Z,4.30
2022-10-21T03:31:15.847Z,4.40
2022-10-21T03:36:18.408Z,4.40
2022-10-21T03:41:21.348Z,4.30
2022-10-21T03:46:23.965Z,4.30
2022-10-21T03:51:26.737Z,4.30
2022-10-21T03:56:29.547Z,4.20
2022-10-21T04:01:32.283Z,4.20
2022-10-21T04:06:35.384Z,4.10
2022-10-21T04:11:38.436Z,4.10
2022-10-21T04:16:41.658Z,4.10
2022-10-21T04:21:45.297Z,4.00
2022-10-21T04:26:48.013Z,4.00
2022-10-21T04:31:50.650Z,4.10
2022-10-21T04:36:53.595Z,4.10
2022-10-21T04:41:56.532Z,4.10
2022-10-21T04:46:59.503Z,4.20
2022-10-21T04:52:02.949Z,4.20
2022-10-21T04:57:05.613Z,4.20
2022-10-21T05:02:08.378Z,4.20
2022-10-21T05:07:11.058Z,4.20
2022-10-21T05:12:13.822Z,4.10
2022-10-21T05:17:16.631Z,4.10
2022-10-21T05:22:19.396Z,4.10
2022-10-21T05:27:22.195Z,4.20
2022-10-21T05:32:25.161Z,4.10
2022-10-21T05:37:27.908Z,4.10
2022-10-21T05:42:30.901Z,4.20
2022-10-21T05:47:33.780Z,4.20
2022-10-21T05:52:36.763Z,4.30
2022-10-21T05:57:39.663Z,4.50
2022-10-21T06:02:42.343Z,4.70
2022-10-21T06:07:45.001Z,4.90
2022-10-21T06:12:47.961Z,5.00
2022-10-21T06:17:52.178Z,5.10
2022-10-21T06:22:55.047Z,5.30
2022-10-21T06:27:57.867Z,5.60
2022-10-21T06:33:00.910Z,5.80
2022-10-21T06:38:03.895Z,6.00
2022-10-21T06:43:06.941Z,6.30
2022-10-21T06:48:09.956Z,6.50
2022-10-21T06:53:13.130Z,6.70
2022-10-21T06:58:15.750Z,6.90
2022-10-21T07:03:18.555Z,7.10
